createdAt,value
2018-06-15T00:00:04.757Z,77.76
2018-06-15T00:01:04.989Z,77.67
2018-06-15T00:02:05.220Z,77.67
2018-06-15T00:03:05.446Z,77.76
2018-06-15T00:04:05.681Z,77.76
2018-06-15T00:05:05.919Z,77.67
2018-06-15T00:06:06.146Z,78.05
2018-06-15T00:07:06.383Z,77.86
2018-06-15T00:08:06.604Z,78.05
2018-06-15T00:09:06.837Z,78.15
2018-06-15T00:10:07.072Z,78.34
2018-06-15T00:11:07.305Z,78.53
2018-06-15T00:12:07.540Z,78.34
2018-06-15T00:13:07.763Z,78.34
2018-06-15T00:14:07.994Z,78.63
2018-06-15T00:15:08.224Z,78.44
2018-06-15T00:16:08.461Z,78.25
2018-06-15T00:17:08.686Z,77.80
2018-06-15T00:18:08.916Z,77.58
2018-06-15T00:19:09.149Z,78.25
2018-06-15T00:20:09.376Z,78.09
2018-06-15T00:21:09.604Z,77.51
2018-06-15T00:22:09.834Z,78.19
2018-06-15T00:23:10.065Z,78.28
2018-06-15T00:24:10.290Z,78.00
2018-06-15T00:25:10.520Z,78.00
2018-06-15T00:26:10.750Z,78.09
2018-06-15T00:27:10.981Z,77.71
2018-06-15T00:28:11.210Z,78.00
2018-06-15T00:29:11.445Z,77.71
2018-06-15T00:30:11.668Z,77.90
2018-06-15T00:31:11.896Z,78.00
2018-06-15T00:32:12.129Z,77.80
2018-06-15T00:33:12.361Z,78.09
2018-06-15T00:34:12.591Z,77.71
2018-06-15T00:35:12.821Z,77.80
2018-06-15T00:36:13.046Z,78.00
2018-06-15T00:37:13.277Z,77.76
2018-06-15T00:38:13.505Z,77.80
2018-06-15T00:39:13.742Z,77.90
2018-06-15T00:40:13.965Z,77.38
2018-06-15T00:41:14.197Z,77.61
2018-06-15T00:42:14.426Z,77.80
2018-06-15T00:43:14.655Z,77.80
2018-06-15T00:44:14.886Z,77.80
2018-06-15T00:45:15.125Z,77.90
2018-06-15T00:46:15.345Z,77.76
2018-06-15T00:47:15.581Z,78.09
2018-06-15T00:48:15.806Z,78.57
2018-06-15T00:49:16.035Z,77.71
2018-06-15T00:50:16.264Z,78.19
2018-06-15T00:51:16.495Z,77.95
2018-06-15T00:52:16.721Z,77.86
2018-06-15T00:53:16.955Z,78.44
2018-06-15T00:54:17.184Z,78.44
2018-06-15T00:55:17.419Z,80.45
2018-06-15T00:56:17.649Z,79.30
2018-06-15T00:57:17.876Z,79.11
2018-06-15T00:58:18.107Z,79.68
2018-06-15T00:59:18.337Z,78.53
2018-06-15T01:00:18.613Z,79.01
2018-06-15T01:01:18.802Z,79.78
2018-06-15T01:02:19.034Z,79.78
2018-06-15T01:03:19.261Z,78.82
2018-06-15T01:04:19.489Z,78.92
2018-06-15T01:05:19.718Z,79.11
2018-06-15T01:06:19.957Z,78.82
2018-06-15T01:07:20.181Z,78.44
2018-06-15T01:08:20.414Z,78.63
2018-06-15T01:09:20.643Z,77.76
2018-06-15T01:10:20.877Z,78.09
2018-06-15T01:11:21.104Z,78.25
2018-06-15T01:12:21.343Z,79.68
2018-06-15T01:13:21.562Z,80.01
2018-06-15T01:14:21.794Z,79.97
2018-06-15T01:15:22.024Z,80.11
2018-06-15T01:16:22.258Z,79.88
2018-06-15T01:17:22.486Z,80.07
2018-06-15T01:18:22.715Z,79.97
2018-06-15T01:19:22.946Z,80.07
2018-06-15T01:20:23.173Z,79.88
2018-06-15T01:21:23.403Z,80.64
2018-06-15T01:22:23.638Z,79.78
2018-06-15T01:23:23.872Z,79.97
2018-06-15T01:24:24.092Z,79.97
2018-06-15T01:25:24.324Z,80.07
2018-06-15T01:26:24.549Z,79.88
2018-06-15T01:27:24.781Z,80.55
2018-06-15T01:28:25.013Z,80.45
2018-06-15T01:29:25.248Z,80.55
2018-06-15T01:30:25.473Z,80.07
2018-06-15T01:31:25.703Z,79.88
2018-06-15T01:32:25.931Z,79.97
2018-06-15T01:33:26.162Z,80.07
2018-06-15T01:34:26.395Z,80.74
2018-06-15T01:35:26.620Z,80.45
2018-06-15T01:36:26.851Z,80.64
2018-06-15T01:37:27.084Z,80.35
2018-06-15T01:38:27.310Z,80.93
2018-06-15T01:39:27.540Z,81.31
2018-06-15T01:40:27.770Z,81.66
2018-06-15T01:41:28.000Z,82.90
2018-06-15T01:42:28.229Z,83.58
2018-06-15T01:43:28.458Z,84.01
2018-06-15T01:44:28.690Z,84.05
2018-06-15T01:45:28.930Z,83.67
2018-06-15T01:46:29.149Z,82.90
2018-06-15T01:47:29.382Z,83.00
2018-06-15T01:48:29.610Z,83.48
2018-06-15T01:49:29.838Z,82.52
2018-06-15T01:50:30.070Z,82.81
2018-06-15T01:51:30.306Z,82.42
2018-06-15T01:52:30.528Z,82.52
2018-06-15T01:53:30.758Z,82.52
2018-06-15T01:54:30.988Z,82.62
2018-06-15T01:55:31.219Z,82.42
2018-06-15T01:56:31.450Z,82.71
2018-06-15T01:57:31.678Z,82.52
2018-06-15T01:58:31.918Z,82.90
2018-06-15T01:59:32.150Z,82.71
2018-06-15T02:00:32.377Z,82.52
2018-06-15T02:01:32.610Z,82.42
2018-06-15T02:02:32.841Z,82.71
2018-06-15T02:03:33.073Z,82.71
2018-06-15T02:04:33.301Z,82.62
2018-06-15T02:05:33.544Z,82.42
2018-06-15T02:06:33.773Z,82.52
2018-06-15T02:07:34.006Z,83.19
2018-06-15T02:08:34.279Z,83.19
2018-06-15T02:09:34.463Z,83.29
2018-06-15T02:10:34.691Z,83.00
2018-06-15T02:11:34.921Z,83.67
2018-06-15T02:12:35.151Z,83.67
2018-06-15T02:13:35.381Z,83.58
2018-06-15T02:14:35.612Z,83.48
2018-06-15T02:15:35.842Z,83.09
2018-06-15T02:16:36.073Z,83.19
2018-06-15T02:17:36.301Z,83.19
2018-06-15T02:18:36.531Z,83.29
2018-06-15T02:19:36.765Z,83.00
2018-06-15T02:20:36.995Z,83.29
2018-06-15T02:21:37.225Z,83.09
2018-06-15T02:22:37.452Z,83.09
2018-06-15T02:23:37.684Z,83.48
2018-06-15T02:24:37.913Z,83.48
2018-06-15T02:25:38.141Z,83.19
2018-06-15T02:26:38.371Z,83.00
2018-06-15T02:27:38.601Z,83.19
2018-06-15T02:28:38.828Z,83.38
2018-06-15T02:29:39.058Z,83.19
2018-06-15T02:30:39.288Z,83.29
2018-06-15T02:31:39.517Z,83.29
2018-06-15T02:32:39.748Z,83.38
2018-06-15T02:33:39.978Z,83.19
2018-06-15T02:34:40.216Z,83.38
2018-06-15T02:35:40.440Z,83.29
2018-06-15T02:36:40.669Z,83.48
2018-06-15T02:37:40.895Z,83.58
2018-06-15T02:38:41.127Z,83.58
2018-06-15T02:39:41.357Z,83.38
2018-06-15T02:40:41.586Z,83.29
2018-06-15T02:41:41.815Z,83.48
2018-06-15T02:42:42.044Z,83.58
2018-06-15T02:43:42.273Z,83.38
2018-06-15T02:44:42.504Z,83.38
2018-06-15T02:45:42.733Z,83.48
2018-06-15T02:46:42.963Z,84.72
2018-06-15T02:47:43.193Z,84.05
2018-06-15T02:48:43.423Z,83.58
2018-06-15T02:49:43.653Z,83.33
2018-06-15T02:50:43.883Z,83.58
2018-06-15T02:51:44.112Z,83.95
2018-06-15T02:52:44.346Z,83.58
2018-06-15T02:53:44.572Z,83.67
2018-06-15T02:54:44.797Z,83.67
2018-06-15T02:55:45.032Z,83.38
2018-06-15T02:56:45.260Z,83.86
2018-06-15T02:57:45.484Z,83.58
2018-06-15T02:58:45.722Z,83.61
2018-06-15T02:59:45.960Z,83.91
2018-06-15T03:00:46.189Z,83.86
2018-06-15T03:01:46.413Z,83.52
2018-06-15T03:02:46.641Z,83.42
2018-06-15T03:03:46.871Z,83.58
2018-06-15T03:04:47.100Z,83.61
2018-06-15T03:05:47.352Z,83.33
2018-06-15T03:06:47.559Z,83.91
2018-06-15T03:07:47.788Z,84.48
2018-06-15T03:08:48.032Z,84.15
2018-06-15T03:09:48.251Z,84.86
2018-06-15T03:10:48.487Z,84.91
2018-06-15T03:11:48.712Z,84.38
2018-06-15T03:12:48.944Z,84.86
2018-06-15T03:13:49.170Z,84.86
2018-06-15T03:14:49.402Z,84.86
2018-06-15T03:15:49.631Z,84.77
2018-06-15T03:16:49.861Z,84.67
2018-06-15T03:17:50.092Z,84.67
2018-06-15T03:18:50.323Z,84.77
2018-06-15T03:19:50.554Z,84.28
2018-06-15T03:20:50.783Z,85.11
2018-06-15T03:21:51.041Z,84.91
2018-06-15T03:22:51.241Z,84.82
2018-06-15T03:23:51.471Z,85.21
2018-06-15T03:24:51.700Z,84.91
2018-06-15T03:25:51.933Z,84.63
2018-06-15T03:26:52.166Z,84.25
2018-06-15T03:27:52.397Z,84.48
2018-06-15T03:28:52.627Z,84.48
2018-06-15T03:29:52.856Z,84.77
2018-06-15T03:30:53.090Z,85.21
2018-06-15T03:31:53.316Z,85.30
2018-06-15T03:32:53.544Z,85.11
2018-06-15T03:33:53.773Z,85.97
2018-06-15T03:34:54.004Z,85.88
2018-06-15T03:35:54.233Z,85.11
2018-06-15T03:36:54.464Z,84.91
2018-06-15T03:37:54.694Z,85.39
2018-06-15T03:38:54.925Z,85.78
2018-06-15T03:39:55.153Z,86.93
2018-06-15T03:40:55.385Z,87.41
2018-06-15T03:41:55.613Z,87.17
2018-06-15T03:42:55.846Z,88.13
2018-06-15T03:43:56.075Z,87.70
2018-06-15T03:44:56.305Z,87.27
2018-06-15T03:45:56.535Z,86.64
2018-06-15T03:46:56.771Z,85.97
2018-06-15T03:47:57.000Z,85.78
2018-06-15T03:48:57.232Z,86.07
2018-06-15T03:49:57.462Z,85.49
2018-06-15T03:50:57.689Z,86.54
2018-06-15T03:51:57.925Z,86.74
2018-06-15T03:52:58.154Z,86.74
2018-06-15T03:53:58.383Z,86.54
2018-06-15T03:54:58.611Z,86.16
2018-06-15T03:55:58.838Z,86.16
2018-06-15T03:56:59.068Z,86.07
2018-06-15T03:57:59.297Z,85.97
2018-06-15T03:58:59.529Z,85.78
2018-06-15T03:59:59.757Z,85.21
2018-06-15T04:00:59.985Z,85.88
2018-06-15T04:02:00.217Z,85.78
2018-06-15T04:03:00.445Z,85.68
2018-06-15T04:04:00.678Z,85.63
2018-06-15T04:05:00.912Z,85.05
2018-06-15T04:06:01.143Z,85.15
2018-06-15T04:07:01.411Z,84.72
2018-06-15T04:08:01.600Z,84.95
2018-06-15T04:09:01.828Z,85.15
2018-06-15T04:10:02.059Z,84.95
2018-06-15T04:11:02.287Z,84.58
2018-06-15T04:12:02.523Z,84.86
2018-06-15T04:13:02.770Z,84.48
2018-06-15T04:14:02.976Z,84.77
2018-06-15T04:15:03.207Z,83.91
2018-06-15T04:16:03.442Z,84.28
2018-06-15T04:17:03.671Z,84.19
2018-06-15T04:18:03.905Z,84.00
2018-06-15T04:19:04.133Z,85.05
2018-06-15T04:20:04.370Z,84.77
2018-06-15T04:21:04.599Z,85.63
2018-06-15T04:22:04.831Z,84.95
2018-06-15T04:23:05.068Z,84.67
2018-06-15T04:24:05.290Z,85.05
2018-06-15T04:25:05.518Z,85.63
2018-06-15T04:26:05.753Z,86.54
2018-06-15T04:27:05.984Z,86.54
2018-06-15T04:28:06.227Z,85.63
2018-06-15T04:29:06.444Z,85.63
2018-06-15T04:30:06.676Z,86.01
2018-06-15T04:31:06.904Z,86.11
2018-06-15T04:32:07.134Z,85.25
2018-06-15T04:33:07.363Z,85.15
2018-06-15T04:34:07.594Z,85.05
2018-06-15T04:35:07.821Z,85.05
2018-06-15T04:36:08.050Z,85.82
2018-06-15T04:37:08.293Z,85.82
2018-06-15T04:38:08.517Z,85.05
2018-06-15T04:39:08.746Z,85.34
2018-06-15T04:40:08.974Z,86.11
2018-06-15T04:41:09.199Z,85.92
2018-06-15T04:42:09.434Z,85.63
2018-06-15T04:43:09.661Z,85.34
2018-06-15T04:44:09.891Z,85.15
2018-06-15T04:45:10.123Z,85.15
2018-06-15T04:46:10.353Z,84.48
2018-06-15T04:47:10.579Z,84.28
2018-06-15T04:48:10.808Z,84.77
2018-06-15T04:49:11.037Z,84.09
2018-06-15T04:50:11.262Z,84.67
2018-06-15T04:51:11.495Z,84.23
2018-06-15T04:52:11.725Z,84.86
2018-06-15T04:53:11.960Z,85.05
2018-06-15T04:54:12.188Z,84.04
2018-06-15T04:55:12.419Z,84.33
2018-06-15T04:56:12.710Z,83.65
2018-06-15T04:57:12.880Z,84.33
2018-06-15T04:58:13.113Z,83.56
2018-06-15T04:59:13.345Z,83.65
2018-06-15T05:00:13.580Z,83.47
2018-06-15T05:01:13.813Z,82.89
2018-06-15T05:02:14.037Z,82.26
2018-06-15T05:03:14.272Z,82.70
2018-06-15T05:04:14.495Z,81.97
2018-06-15T05:05:14.730Z,82.26
2018-06-15T05:06:14.954Z,81.87
2018-06-15T05:07:15.185Z,81.97
2018-06-15T05:08:15.416Z,81.30
2018-06-15T05:09:15.656Z,81.40
2018-06-15T05:10:15.875Z,81.59
2018-06-15T05:11:16.112Z,81.97
2018-06-15T05:12:16.339Z,81.30
2018-06-15T05:13:16.572Z,81.30
2018-06-15T05:14:16.803Z,81.87
2018-06-15T05:15:17.032Z,81.49
2018-06-15T05:16:17.262Z,81.20
2018-06-15T05:17:17.540Z,81.24
2018-06-15T05:18:17.722Z,81.24
2018-06-15T05:19:17.953Z,80.86
2018-06-15T05:20:18.187Z,80.09
2018-06-15T05:21:18.418Z,79.80
2018-06-15T05:22:18.647Z,79.75
2018-06-15T05:23:18.873Z,79.55
2018-06-15T05:24:19.109Z,79.27
2018-06-15T05:25:19.340Z,79.75
2018-06-15T05:26:19.570Z,78.69
2018-06-15T05:27:19.803Z,78.98
2018-06-15T05:28:20.033Z,78.59
2018-06-15T05:29:20.265Z,79.17
2018-06-15T05:30:20.498Z,78.83
2018-06-15T05:31:20.731Z,78.50
2018-06-15T05:32:20.960Z,78.34
2018-06-15T05:33:21.189Z,77.76
2018-06-15T05:34:21.426Z,77.58
2018-06-15T05:35:21.694Z,78.15
2018-06-15T05:36:21.882Z,77.86
2018-06-15T05:37:22.114Z,77.76
2018-06-15T05:38:22.348Z,77.76
2018-06-15T05:39:22.573Z,77.09
2018-06-15T05:40:22.806Z,76.65
2018-06-15T05:41:23.041Z,76.61
2018-06-15T05:42:23.267Z,77.09
2018-06-15T05:43:23.502Z,76.42
2018-06-15T05:44:23.732Z,77.48
2018-06-15T05:45:23.962Z,77.33
2018-06-15T05:46:24.195Z,77.67
2018-06-15T05:47:24.431Z,78.21
2018-06-15T05:48:24.676Z,77.67
2018-06-15T05:49:24.900Z,77.92
2018-06-15T05:50:25.131Z,77.29
2018-06-15T05:51:25.360Z,77.38
2018-06-15T05:52:25.600Z,77.19
2018-06-15T05:53:25.831Z,77.19
2018-06-15T05:54:26.065Z,77.29
2018-06-15T05:55:26.294Z,76.84
2018-06-15T05:56:26.528Z,77.81
2018-06-15T05:57:26.762Z,77.48
2018-06-15T05:58:26.990Z,77.81
2018-06-15T05:59:27.219Z,76.07
2018-06-15T06:00:27.452Z,76.07
2018-06-15T06:01:27.690Z,76.11
2018-06-15T06:02:27.931Z,76.01
2018-06-15T06:03:28.161Z,75.54
2018-06-15T06:04:28.391Z,74.57
2018-06-15T06:05:28.624Z,75.15
2018-06-15T06:06:28.857Z,74.48
2018-06-15T06:07:29.093Z,74.41
2018-06-15T06:08:29.322Z,74.61
2018-06-15T06:09:29.552Z,73.94
2018-06-15T06:10:29.784Z,73.26
2018-06-15T06:11:30.019Z,73.55
2018-06-15T06:12:30.247Z,73.16
2018-06-15T06:13:30.479Z,72.68
2018-06-15T06:14:30.715Z,73.39
2018-06-15T06:15:30.938Z,73.49
2018-06-15T06:16:31.174Z,73.49
2018-06-15T06:17:31.408Z,72.91
2018-06-15T06:18:31.642Z,72.43
2018-06-15T06:19:31.874Z,72.81
2018-06-15T06:20:32.107Z,72.33
2018-06-15T06:21:32.341Z,72.20
2018-06-15T06:22:32.572Z,72.24
2018-06-15T06:23:32.805Z,72.33
2018-06-15T06:24:33.044Z,73.01
2018-06-15T06:25:33.274Z,72.14
2018-06-15T06:26:33.515Z,72.81
2018-06-15T06:27:33.737Z,72.27
2018-06-15T06:28:33.973Z,72.08
2018-06-15T06:29:34.207Z,71.89
2018-06-15T06:30:34.443Z,72.08
2018-06-15T06:31:34.676Z,71.41
2018-06-15T06:32:34.934Z,71.60
2018-06-15T06:33:35.140Z,71.02
2018-06-15T06:34:35.373Z,72.27
2018-06-15T06:35:35.611Z,71.89
2018-06-15T06:36:35.840Z,72.33
2018-06-15T06:37:36.074Z,72.37
2018-06-15T06:38:36.308Z,71.98
2018-06-15T06:39:36.542Z,73.01
2018-06-15T06:40:36.775Z,72.72
2018-06-15T06:41:37.011Z,72.66
2018-06-15T06:42:37.241Z,71.50
2018-06-15T06:43:37.475Z,71.22
2018-06-15T06:44:37.707Z,71.47
2018-06-15T06:45:37.940Z,71.66
2018-06-15T06:46:38.171Z,71.50
2018-06-15T06:47:38.405Z,72.18
2018-06-15T06:48:38.644Z,72.08
2018-06-15T06:49:38.881Z,71.41
2018-06-15T06:50:39.190Z,73.49
2018-06-15T06:51:39.347Z,72.81
2018-06-15T06:52:39.583Z,73.55
2018-06-15T06:53:39.816Z,73.07
2018-06-15T06:54:40.071Z,74.22
2018-06-15T06:55:40.280Z,74.99
2018-06-15T06:56:40.512Z,74.80
2018-06-15T06:57:40.748Z,75.73
2018-06-15T06:58:40.983Z,75.24
2018-06-15T06:59:41.209Z,75.38
2018-06-15T07:00:41.442Z,76.01
2018-06-15T07:01:41.675Z,75.48
2018-06-15T07:02:41.908Z,75.73
2018-06-15T07:03:42.144Z,75.92
2018-06-15T07:04:42.371Z,75.48
2018-06-15T07:05:42.607Z,75.96
2018-06-15T07:06:42.839Z,75.82
2018-06-15T07:07:43.070Z,75.34
2018-06-15T07:08:43.302Z,75.92
2018-06-15T07:09:43.533Z,76.01
2018-06-15T07:10:43.764Z,76.01
2018-06-15T07:11:43.999Z,76.59
2018-06-15T07:12:44.232Z,76.78
2018-06-15T07:13:44.466Z,76.59
2018-06-15T07:14:44.698Z,77.46
2018-06-15T07:15:44.931Z,77.46
2018-06-15T07:16:45.162Z,77.75
2018-06-15T07:17:45.395Z,78.13
2018-06-15T07:18:45.626Z,77.75
2018-06-15T07:19:45.859Z,78.23
2018-06-15T07:20:46.092Z,78.03
2018-06-15T07:21:46.321Z,77.94
2018-06-15T07:22:46.555Z,78.13
2018-06-15T07:23:46.787Z,77.94
2018-06-15T07:24:47.020Z,77.75
2018-06-15T07:25:47.261Z,77.56
2018-06-15T07:26:47.496Z,77.88
2018-06-15T07:27:47.728Z,76.15
2018-06-15T07:28:47.956Z,75.28
2018-06-15T07:29:48.195Z,74.90
2018-06-15T07:30:48.423Z,74.99
2018-06-15T07:31:48.658Z,73.46
2018-06-15T07:32:48.888Z,72.33
2018-06-15T07:33:49.121Z,72.53
2018-06-15T07:34:49.351Z,72.05
2018-06-15T07:35:49.584Z,72.33
2018-06-15T07:36:49.817Z,71.76
2018-06-15T07:37:50.050Z,71.85
2018-06-15T07:38:50.282Z,71.18
2018-06-15T07:39:50.516Z,71.47
2018-06-15T07:40:50.745Z,71.41
2018-06-15T07:41:50.977Z,70.64
2018-06-15T07:42:51.212Z,70.64
2018-06-15T07:43:51.445Z,70.54
2018-06-15T07:44:51.676Z,70.44
2018-06-15T07:45:51.912Z,70.44
2018-06-15T07:46:52.150Z,69.32
2018-06-15T07:47:52.378Z,69.19
2018-06-15T07:48:52.616Z,69.51
2018-06-15T07:49:52.846Z,68.74
2018-06-15T07:50:53.079Z,68.74
2018-06-15T07:51:53.311Z,67.68
2018-06-15T07:52:53.548Z,68.07
2018-06-15T07:53:53.782Z,67.78
2018-06-15T07:54:54.010Z,69.13
2018-06-15T07:55:54.241Z,68.04
2018-06-15T07:56:54.479Z,68.13
2018-06-15T07:57:54.709Z,69.48
2018-06-15T07:58:54.941Z,69.38
2018-06-15T07:59:55.177Z,69.29
2018-06-15T08:00:55.416Z,69.19
2018-06-15T08:01:55.648Z,68.61
2018-06-15T08:02:55.881Z,69.19
2018-06-15T08:03:56.115Z,69.25
2018-06-15T08:04:56.348Z,70.60
2018-06-15T08:05:56.582Z,70.73
2018-06-15T08:06:56.815Z,70.73
2018-06-15T08:07:57.047Z,70.35
2018-06-15T08:08:57.280Z,70.06
2018-06-15T08:09:57.516Z,70.35
2018-06-15T08:10:57.745Z,69.77
2018-06-15T08:11:57.978Z,69.48
2018-06-15T08:12:58.217Z,69.77
2018-06-15T08:13:58.457Z,70.06
2018-06-15T08:14:58.683Z,69.87
2018-06-15T08:15:58.923Z,70.25
2018-06-15T08:16:59.153Z,69.87
2018-06-15T08:17:59.391Z,69.67
2018-06-15T08:18:59.628Z,68.99
2018-06-15T08:19:59.856Z,68.42
2018-06-15T08:21:00.089Z,69.09
2018-06-15T08:22:00.322Z,69.19
2018-06-15T08:23:00.560Z,69.09
2018-06-15T08:24:00.789Z,69.38
2018-06-15T08:25:01.020Z,70.83
2018-06-15T08:26:01.252Z,71.50
2018-06-15T08:27:01.485Z,72.18
2018-06-15T08:28:01.723Z,72.33
2018-06-15T08:29:01.954Z,72.05
2018-06-15T08:30:02.190Z,71.95
2018-06-15T08:31:02.418Z,72.72
2018-06-15T08:32:02.654Z,73.68
2018-06-15T08:33:02.897Z,73.30
2018-06-15T08:34:03.116Z,74.26
2018-06-15T08:35:03.356Z,74.36
2018-06-15T08:36:03.588Z,74.93
2018-06-15T08:37:03.819Z,76.18
2018-06-15T08:38:04.052Z,75.23
2018-06-15T08:39:04.282Z,74.61
2018-06-15T08:40:04.509Z,76.25
2018-06-15T08:41:04.751Z,77.50
2018-06-15T08:42:04.984Z,76.73
2018-06-15T08:43:05.216Z,75.57
2018-06-15T08:44:05.449Z,75.86
2018-06-15T08:45:05.685Z,76.59
2018-06-15T08:46:05.910Z,77.50
2018-06-15T08:47:06.145Z,77.75
2018-06-15T08:48:06.377Z,77.26
2018-06-15T08:49:06.609Z,78.03
2018-06-15T08:50:06.845Z,77.75
2018-06-15T08:51:07.093Z,78.03
2018-06-15T08:52:07.321Z,78.65
2018-06-15T08:53:07.559Z,77.75
2018-06-15T08:54:07.788Z,77.75
2018-06-15T08:55:08.018Z,78.33
2018-06-15T08:56:08.253Z,78.36
2018-06-15T08:57:08.481Z,77.59
2018-06-15T08:58:08.718Z,78.17
2018-06-15T08:59:08.949Z,76.06
2018-06-15T09:00:09.180Z,76.06
2018-06-15T09:01:09.414Z,76.44
2018-06-15T09:02:09.646Z,75.67
2018-06-15T09:03:09.885Z,74.61
2018-06-15T09:04:10.117Z,74.74
2018-06-15T09:05:10.360Z,75.51
2018-06-15T09:06:10.585Z,75.99
2018-06-15T09:07:10.810Z,74.84
2018-06-15T09:08:11.047Z,74.93
2018-06-15T09:09:11.280Z,74.74
2018-06-15T09:10:11.516Z,73.68
2018-06-15T09:11:11.746Z,73.58
2018-06-15T09:12:11.980Z,72.72
2018-06-15T09:13:12.210Z,73.01
2018-06-15T09:14:12.444Z,72.72
2018-06-15T09:15:12.675Z,72.81
2018-06-15T09:16:12.908Z,72.91
2018-06-15T09:17:13.139Z,73.49
2018-06-15T09:18:13.403Z,72.91
2018-06-15T09:19:13.609Z,72.81
2018-06-15T09:20:13.841Z,73.39
2018-06-15T09:21:14.073Z,73.97
2018-06-15T09:22:14.310Z,73.39
2018-06-15T09:23:14.541Z,73.43
2018-06-15T09:24:14.773Z,73.14
2018-06-15T09:25:15.010Z,72.56
2018-06-15T09:26:15.238Z,73.14
2018-06-15T09:27:15.471Z,72.53
2018-06-15T09:28:15.703Z,72.43
2018-06-15T09:29:15.936Z,72.72
2018-06-15T09:30:16.169Z,72.43
2018-06-15T09:31:16.404Z,72.43
2018-06-15T09:32:16.639Z,72.72
2018-06-15T09:33:16.875Z,72.05
2018-06-15T09:34:17.116Z,72.53
2018-06-15T09:35:17.342Z,72.43
2018-06-15T09:36:17.575Z,71.66
2018-06-15T09:37:17.804Z,71.47
2018-06-15T09:38:18.041Z,71.50
2018-06-15T09:39:18.275Z,70.83
2018-06-15T09:40:18.508Z,70.73
2018-06-15T09:41:18.741Z,70.25
2018-06-15T09:42:18.975Z,68.90
2018-06-15T09:43:19.206Z,68.99
2018-06-15T09:44:19.438Z,69.29
2018-06-15T09:45:19.672Z,69.29
2018-06-15T09:46:19.926Z,69.38
2018-06-15T09:47:20.140Z,69.48
2018-06-15T09:48:20.377Z,69.77
2018-06-15T09:49:20.603Z,69.19
2018-06-15T09:50:20.837Z,69.67
2018-06-15T09:51:21.072Z,69.29
2018-06-15T09:52:21.305Z,68.26
2018-06-15T09:53:21.547Z,68.45
2018-06-15T09:54:21.773Z,67.40
2018-06-15T09:55:22.008Z,67.23
2018-06-15T09:56:22.237Z,66.27
2018-06-15T09:57:22.471Z,65.14
2018-06-15T09:58:22.705Z,64.86
2018-06-15T09:59:22.939Z,65.43
2018-06-15T10:00:23.178Z,65.66
2018-06-15T10:01:23.414Z,64.40
2018-06-15T10:02:23.643Z,64.50
2018-06-15T10:03:23.876Z,62.98
2018-06-15T10:04:24.110Z,62.79
2018-06-15T10:05:24.357Z,61.92
2018-06-15T10:06:24.592Z,62.24
2018-06-15T10:07:24.824Z,61.57
2018-06-15T10:08:25.058Z,61.27
2018-06-15T10:09:25.290Z,58.89
2018-06-15T10:10:25.524Z,59.28
2018-06-15T10:11:25.760Z,58.80
2018-06-15T10:12:25.998Z,58.40
2018-06-15T10:13:26.229Z,58.72
2018-06-15T10:14:26.464Z,59.01
2018-06-15T10:15:26.701Z,58.14
2018-06-15T10:16:26.934Z,58.07
2018-06-15T10:17:27.169Z,56.98
2018-06-15T10:18:27.405Z,56.82
2018-06-15T10:19:27.642Z,56.82
2018-06-15T10:20:27.870Z,57.11
2018-06-15T10:21:28.111Z,56.72
2018-06-15T10:22:28.349Z,56.62
2018-06-15T10:23:28.593Z,56.65
2018-06-15T10:24:28.817Z,56.85
2018-06-15T10:25:29.051Z,56.94
2018-06-15T10:26:29.287Z,56.16
2018-06-15T10:27:29.523Z,56.94
2018-06-15T10:28:29.759Z,56.94
2018-06-15T10:29:29.996Z,56.56
2018-06-15T10:30:30.234Z,55.98
2018-06-15T10:31:30.466Z,56.46
2018-06-15T10:32:30.701Z,55.71
2018-06-15T10:33:30.938Z,55.90
2018-06-15T10:34:31.174Z,55.32
2018-06-15T10:35:31.407Z,54.35
2018-06-15T10:36:31.645Z,54.64
2018-06-15T10:37:31.881Z,54.67
2018-06-15T10:38:32.118Z,53.61
2018-06-15T10:39:32.391Z,53.80
2018-06-15T10:40:32.590Z,53.58
2018-06-15T10:41:32.824Z,53.12
2018-06-15T10:42:33.059Z,53.41
2018-06-15T10:43:33.300Z,52.93
2018-06-15T10:44:33.533Z,52.44
2018-06-15T10:45:33.770Z,52.06
2018-06-15T10:46:34.005Z,53.12
2018-06-15T10:47:34.242Z,53.63
2018-06-15T10:48:34.486Z,52.73
2018-06-15T10:49:34.714Z,53.31
2018-06-15T10:50:34.956Z,53.02
2018-06-15T10:51:35.191Z,52.93
2018-06-15T10:52:35.426Z,54.19
2018-06-15T10:53:35.660Z,53.61
2018-06-15T10:54:35.899Z,53.51
2018-06-15T10:55:36.138Z,53.12
2018-06-15T10:56:36.373Z,52.22
2018-06-15T10:57:36.614Z,53.19
2018-06-15T10:58:36.849Z,53.49
2018-06-15T10:59:37.083Z,53.58
2018-06-15T11:00:37.321Z,52.90
2018-06-15T11:01:37.555Z,52.51
2018-06-15T11:02:37.793Z,52.61
2018-06-15T11:03:38.030Z,52.51
2018-06-15T11:04:38.267Z,53.00
2018-06-15T11:05:38.501Z,52.12
2018-06-15T11:06:38.742Z,51.06
2018-06-15T11:07:38.972Z,51.54
2018-06-15T11:08:39.209Z,50.77
2018-06-15T11:09:39.449Z,50.48
2018-06-15T11:10:39.682Z,50.38
2018-06-15T11:11:39.918Z,51.35
2018-06-15T11:12:40.155Z,52.61
2018-06-15T11:13:40.395Z,53.12
2018-06-15T11:14:40.628Z,52.93
2018-06-15T11:15:40.864Z,52.64
2018-06-15T11:16:41.101Z,52.06
2018-06-15T11:17:41.336Z,51.47
2018-06-15T11:18:41.575Z,51.79
2018-06-15T11:19:41.815Z,51.79
2018-06-15T11:20:42.056Z,50.62
2018-06-15T11:21:42.289Z,49.46
2018-06-15T11:22:42.526Z,49.46
2018-06-15T11:23:42.763Z,49.17
2018-06-15T11:24:42.996Z,48.30
2018-06-15T11:25:43.234Z,47.83
2018-06-15T11:26:43.467Z,48.13
2018-06-15T11:27:43.709Z,48.30
2018-06-15T11:28:43.944Z,48.69
2018-06-15T11:29:44.181Z,49.85
2018-06-15T11:30:44.420Z,50.65
2018-06-15T11:31:44.656Z,49.10
2018-06-15T11:32:44.892Z,48.03
2018-06-15T11:33:45.127Z,48.35
2018-06-15T11:34:45.368Z,49.41
2018-06-15T11:35:45.601Z,49.32
2018-06-15T11:36:45.837Z,49.61
2018-06-15T11:37:46.077Z,48.83
2018-06-15T11:38:46.312Z,48.25
2018-06-15T11:39:46.548Z,48.83
2018-06-15T11:40:46.787Z,48.83
2018-06-15T11:41:47.023Z,49.41
2018-06-15T11:42:47.286Z,49.39
2018-06-15T11:43:47.561Z,50.84
2018-06-15T11:44:47.756Z,50.56
2018-06-15T11:45:47.998Z,50.36
2018-06-15T11:46:48.233Z,50.24
2018-06-15T11:47:48.469Z,51.04
2018-06-15T11:48:48.705Z,52.40
2018-06-15T11:49:48.939Z,52.20
2018-06-15T11:50:49.178Z,51.23
2018-06-15T11:51:49.409Z,51.50
2018-06-15T11:52:49.653Z,51.31
2018-06-15T11:53:49.894Z,51.50
2018-06-15T11:54:50.132Z,51.50
2018-06-15T11:55:50.366Z,51.11
2018-06-15T11:56:50.601Z,51.96
2018-06-15T11:57:50.837Z,52.06
2018-06-15T11:58:51.077Z,52.54
2018-06-15T11:59:51.308Z,52.64
2018-06-15T12:00:51.547Z,52.34
2018-06-15T12:01:51.877Z,52.54
2018-06-15T12:02:52.022Z,52.54
2018-06-15T12:03:52.260Z,52.25
2018-06-15T12:04:52.497Z,52.44
2018-06-15T12:05:52.731Z,52.18
2018-06-15T12:06:52.969Z,52.15
2018-06-15T12:07:53.244Z,52.44
2018-06-15T12:08:53.445Z,52.73
2018-06-15T12:09:53.678Z,53.02
2018-06-15T12:10:53.945Z,52.64
2018-06-15T12:11:54.195Z,52.34
2018-06-15T12:12:54.435Z,52.73
2018-06-15T12:13:54.679Z,52.61
2018-06-15T12:14:54.907Z,53.29
2018-06-15T12:15:55.142Z,53.29
2018-06-15T12:16:55.377Z,53.19
2018-06-15T12:17:55.619Z,52.51
2018-06-15T12:18:55.863Z,53.09
2018-06-15T12:19:56.099Z,52.42
2018-06-15T12:20:56.338Z,53.29
2018-06-15T12:21:56.573Z,53.36
2018-06-15T12:22:56.811Z,52.87
2018-06-15T12:23:57.084Z,52.68
2018-06-15T12:24:57.287Z,53.55
2018-06-15T12:25:57.522Z,53.94
2018-06-15T12:26:57.757Z,53.65
2018-06-15T12:27:57.996Z,53.29
2018-06-15T12:28:58.245Z,53.58
2018-06-15T12:29:58.479Z,54.26
2018-06-15T12:30:58.714Z,55.13
2018-06-15T12:31:58.953Z,54.71
2018-06-15T12:32:59.198Z,55.20
2018-06-15T12:33:59.443Z,55.78
2018-06-15T12:34:59.666Z,55.58
2018-06-15T12:35:59.910Z,55.20
2018-06-15T12:37:00.149Z,55.30
2018-06-15T12:38:00.387Z,55.49
2018-06-15T12:39:00.622Z,55.76
2018-06-15T12:40:00.865Z,56.52
2018-06-15T12:41:01.104Z,57.56
2018-06-15T12:42:01.341Z,56.79
2018-06-15T12:43:01.578Z,57.56
2018-06-15T12:44:01.816Z,56.79
2018-06-15T12:45:02.052Z,57.11
2018-06-15T12:46:02.538Z,57.11
2018-06-15T12:47:02.522Z,57.66
2018-06-15T12:48:02.759Z,58.34
2018-06-15T12:49:02.994Z,59.40
2018-06-15T12:50:03.230Z,60.17
2018-06-15T12:51:03.480Z,59.38
2018-06-15T12:52:03.712Z,60.14
2018-06-15T12:53:03.949Z,60.99
2018-06-15T12:54:04.187Z,60.99
2018-06-15T12:55:04.421Z,60.21